Olovjannaja, Russia
Current Conditions -  °F | °C
As of 6:30 PM on Friday 31 Oct 2014 (Local Time) from UIAA Reporting Station
Few Clouds Few Clouds  
Wind Chill: 13°   Ceiling: Unl
Heat Index: 19°   Visibility: 6mi
Dew Point: 14°   Wind: 4mph
Humidity: 80%   Direction: NA
Pressure: 29.94"   Gusts: NA
Location:  50.95°N, 115.57°E
Report Text: UIAA 310930Z VRB02MPS 9999 FEW100 M07/M10 Q1014 NOSIG RMKQFE702 29CLRD70
Loading
Personal Weather Stations






























Interactive Weather Map
Tropical Storm Tracking
New forecast layout! Learn more

10-Day Weather Forecast

Advertisements
Track Severe Weather on mobile